createdAt,value
2018-12-15T17:06:43.036Z,11.90
2018-12-15T17:07:42.981Z,13.70
2018-12-15T17:08:43.030Z,15.80
2018-12-15T17:09:42.922Z,16.40
2018-12-15T17:10:42.894Z,16.80
2018-12-15T17:11:42.900Z,17.00
2018-12-15T17:12:42.857Z,16.50
2018-12-15T17:13:42.813Z,16.30
2018-12-15T17:14:42.813Z,15.80
2018-12-15T17:15:42.779Z,16.00
2018-12-15T17:16:42.744Z,16.40
2018-12-15T17:17:42.715Z,16.60
2018-12-15T17:18:42.690Z,16.50
2018-12-15T17:19:42.667Z,17.70
2018-12-15T17:20:42.666Z,16.40
2018-12-15T17:21:42.619Z,15.90
2018-12-15T17:22:42.594Z,15.80
2018-12-15T17:23:42.575Z,16.30
2018-12-15T17:24:42.548Z,15.80
2018-12-15T17:25:42.541Z,16.40
2018-12-15T17:26:42.524Z,16.30
2018-12-15T17:27:42.481Z,16.00
2018-12-15T17:28:42.460Z,15.10
2018-12-15T17:29:42.443Z,16.10
2018-12-15T17:30:42.415Z,16.20
2018-12-15T17:31:42.948Z,15.70
2018-12-15T17:32:42.393Z,16.50
2018-12-15T17:33:42.346Z,16.70
2018-12-15T17:34:43.414Z,16.50
2018-12-15T17:35:42.962Z,16.30
2018-12-15T17:36:42.315Z,16.30
2018-12-15T17:37:42.517Z,17.90
2018-12-15T17:38:42.313Z,18.10
2018-12-15T17:39:42.295Z,16.10
2018-12-15T17:40:42.960Z,15.80
2018-12-15T17:41:42.272Z,16.20
2018-12-15T17:42:42.922Z,16.20
2018-12-15T17:43:42.295Z,15.50
2018-12-15T17:44:42.121Z,16.90
2018-12-15T17:45:42.089Z,17.10
2018-12-15T17:46:42.058Z,16.70
2018-12-15T17:47:42.039Z,16.60
2018-12-15T17:48:42.042Z,16.30
2018-12-15T17:49:41.995Z,17.20
2018-12-15T17:50:41.970Z,16.30
2018-12-15T17:51:41.948Z,16.50
2018-12-15T17:52:41.922Z,16.10
2018-12-15T17:53:41.932Z,16.60
2018-12-15T17:54:41.875Z,16.80
2018-12-15T17:55:42.484Z,16.80
2018-12-15T17:56:41.835Z,16.80
2018-12-15T19:40:08.080Z,12.80
2018-12-15T19:41:08.027Z,15.40
2018-12-15T19:42:08.020Z,16.60
2018-12-15T19:43:07.971Z,17.60
2018-12-15T19:44:07.946Z,17.50
2018-12-15T19:45:07.930Z,17.40
2018-12-15T19:46:07.880Z,17.70
2018-12-15T19:47:07.862Z,17.10
2018-12-15T19:48:07.922Z,17.40
2018-12-15T19:49:07.805Z,17.00
2018-12-15T19:50:07.782Z,17.60
2018-12-15T19:51:07.758Z,19.70
2018-12-15T19:52:07.760Z,17.40
2018-12-15T19:53:07.725Z,16.50
2018-12-15T19:55:49.911Z,16.80
2018-12-15T19:56:49.893Z,16.70
2018-12-15T19:57:49.893Z,16.80
2018-12-15T19:58:49.841Z,16.60
2018-12-15T19:59:49.827Z,16.80
2018-12-15T20:00:49.804Z,16.80
2018-12-15T20:01:49.779Z,16.40
2018-12-15T20:02:49.757Z,17.20
2018-12-15T20:03:49.755Z,17.10
2018-12-15T20:04:49.744Z,16.80
2018-12-15T20:05:49.689Z,16.70
2018-12-15T20:06:49.675Z,16.90
2018-12-15T20:07:49.660Z,17.20
2018-12-15T20:08:49.638Z,16.80
2018-12-15T20:09:49.596Z,16.80
2018-12-15T20:10:49.603Z,16.70
2018-12-15T20:11:49.546Z,16.60
2018-12-15T20:12:49.556Z,17.10
2018-12-15T20:13:49.501Z,16.60
2018-12-15T20:14:49.489Z,17.10
2018-12-15T20:15:49.461Z,16.50
2018-12-15T20:16:49.456Z,17.10
2018-12-15T20:17:49.437Z,16.70
2018-12-15T20:18:49.481Z,17.10
2018-12-15T20:19:49.366Z,17.60
2018-12-15T20:20:49.383Z,17.80
2018-12-15T20:21:49.355Z,17.60
2018-12-15T20:22:49.298Z,17.10
2018-12-15T20:23:49.978Z,16.90
2018-12-15T20:24:49.271Z,17.00
2018-12-15T20:25:49.229Z,17.80
2018-12-15T20:28:31.464Z,17.50
2018-12-15T20:29:31.411Z,17.60
2018-12-15T20:30:31.381Z,17.60
2018-12-15T20:31:31.360Z,17.90
2018-12-15T20:34:13.442Z,16.90
2018-12-15T20:35:13.405Z,17.10
2018-12-15T20:36:13.389Z,17.10
2018-12-15T20:37:13.367Z,17.20
2018-12-15T20:38:13.333Z,17.10
2018-12-15T20:39:13.309Z,16.90
2018-12-15T20:40:13.326Z,17.10
2018-12-15T20:41:13.258Z,16.80
2018-12-15T20:42:13.233Z,17.20
2018-12-15T20:43:13.219Z,17.70
2018-12-15T20:44:13.199Z,18.00
2018-12-15T20:45:13.188Z,16.70
2018-12-15T20:46:13.144Z,18.80
2018-12-15T20:47:13.131Z,17.20
2018-12-15T20:48:13.102Z,18.20
2018-12-15T20:49:13.082Z,17.60
2018-12-15T20:50:13.069Z,17.30
2018-12-15T20:51:13.042Z,17.10
2018-12-15T20:52:13.022Z,16.50
2018-12-15T20:53:12.996Z,17.30
2018-12-15T20:54:12.973Z,18.00
2018-12-15T20:55:13.067Z,17.60
2018-12-15T20:56:12.915Z,17.50
2018-12-15T20:57:12.931Z,17.40
2018-12-15T20:58:12.871Z,17.40
2018-12-15T20:59:12.849Z,18.00
2018-12-15T21:00:12.836Z,17.10
2018-12-15T21:01:12.822Z,17.60
2018-12-15T21:02:12.793Z,17.60
2018-12-15T21:03:12.785Z,17.60
2018-12-15T21:04:12.758Z,17.30
2018-12-15T21:05:13.453Z,17.60
2018-12-15T21:06:12.703Z,17.00
2018-12-15T21:07:12.674Z,17.60
2018-12-15T21:08:12.649Z,17.10
2018-12-15T21:09:13.049Z,16.60
2018-12-15T21:10:13.498Z,17.10
2018-12-15T21:11:12.631Z,16.30
2018-12-15T21:12:12.554Z,17.50
2018-12-15T21:13:12.531Z,17.00
2018-12-15T21:14:12.527Z,17.50
2018-12-15T21:15:12.491Z,17.60
2018-12-15T21:16:12.474Z,17.10
2018-12-15T21:17:12.444Z,17.10
2018-12-15T21:18:12.426Z,17.90
2018-12-15T21:19:12.417Z,17.10
2018-12-15T21:20:12.469Z,17.60
2018-12-15T21:21:12.357Z,17.60
2018-12-15T21:22:12.954Z,17.40
2018-12-15T21:23:14.454Z,17.50
2018-12-15T21:24:12.282Z,17.20
2018-12-15T21:25:12.274Z,17.50
2018-12-15T21:26:12.236Z,17.40
2018-12-15T21:27:12.239Z,17.30
2018-12-15T21:28:12.188Z,17.50
2018-12-15T21:29:12.179Z,17.40
2018-12-15T21:30:12.152Z,17.50
2018-12-15T21:31:12.121Z,17.80
2018-12-15T21:32:12.115Z,17.80
2018-12-15T21:33:12.105Z,17.50
2018-12-15T21:34:12.072Z,17.10
2018-12-15T21:35:12.029Z,17.40
2018-12-15T21:36:12.013Z,17.50
2018-12-15T21:37:12.035Z,17.40
2018-12-15T21:38:11.986Z,17.40
2018-12-15T21:39:11.940Z,17.40
2018-12-15T21:40:11.917Z,17.10
2018-12-15T21:41:11.891Z,17.10
2018-12-15T21:42:11.953Z,17.20
2018-12-15T21:43:11.851Z,17.30
2018-12-15T21:44:11.925Z,18.20
2018-12-15T21:45:11.802Z,17.30
2018-12-15T21:46:11.780Z,18.10
2018-12-15T21:47:11.788Z,17.10
2018-12-15T21:48:11.733Z,17.60
2018-12-15T21:49:11.740Z,17.10
2018-12-15T21:50:11.689Z,17.30
2018-12-15T21:51:11.661Z,17.90
2018-12-15T21:52:11.640Z,17.40
2018-12-15T21:53:11.624Z,18.40
2018-12-15T21:54:11.614Z,17.20
2018-12-15T21:55:11.574Z,17.40
2018-12-15T21:56:11.547Z,17.90
2018-12-15T21:57:11.546Z,18.30
2018-12-15T21:58:11.523Z,17.50
2018-12-15T21:59:11.553Z,17.40
2018-12-15T22:00:11.468Z,17.80
2018-12-15T22:01:11.439Z,17.40
2018-12-15T22:02:11.415Z,17.50
2018-12-15T22:03:11.388Z,17.20
2018-12-15T22:04:11.373Z,17.50
2018-12-15T22:05:11.375Z,17.70
2018-12-15T22:06:11.322Z,17.30
2018-12-15T22:07:11.301Z,17.80
2018-12-15T22:08:11.284Z,16.90
2018-12-15T22:09:11.255Z,17.40
2018-12-15T22:10:11.231Z,17.40
2018-12-15T22:11:11.224Z,17.40
2018-12-15T22:12:11.195Z,18.00
2018-12-15T22:13:11.163Z,18.10
2018-12-15T22:14:11.148Z,17.60
2018-12-15T22:15:11.158Z,17.80
2018-12-15T22:16:11.094Z,17.80
2018-12-15T22:17:11.076Z,17.90
2018-12-15T22:18:11.078Z,17.70
2018-12-15T22:19:11.023Z,17.70
2018-12-15T22:20:11.002Z,17.40
2018-12-15T22:21:11.004Z,17.10
2018-12-15T22:22:11.039Z,17.70
2018-12-15T22:23:10.934Z,18.20
2018-12-15T22:24:10.963Z,17.50
2018-12-15T22:25:10.886Z,18.20
2018-12-15T22:26:10.864Z,17.90
2018-12-15T22:27:10.862Z,18.40
2018-12-15T22:28:10.821Z,18.30
2018-12-15T22:29:10.809Z,18.50
2018-12-15T22:30:10.788Z,18.10
2018-12-15T22:31:11.062Z,18.40
2018-12-15T22:32:10.747Z,18.60
2018-12-15T22:33:10.717Z,17.90
2018-12-15T22:34:10.711Z,18.20
2018-12-15T22:35:10.678Z,18.80
2018-12-15T22:36:10.635Z,18.60
2018-12-15T22:37:10.613Z,17.60
2018-12-15T22:38:10.597Z,17.80
2018-12-15T22:39:10.568Z,18.80
2018-12-15T22:40:10.551Z,18.00
2018-12-15T22:41:10.542Z,18.00
2018-12-15T22:42:10.519Z,18.80
2018-12-15T22:43:10.480Z,18.70
2018-12-15T22:44:10.459Z,18.40
2018-12-15T22:45:10.444Z,18.40
2018-12-15T22:46:10.412Z,17.70
2018-12-15T22:48:03.207Z,17.90
2018-12-15T22:49:03.171Z,18.50
2018-12-15T22:50:03.156Z,18.60
2018-12-15T22:51:03.114Z,19.00
2018-12-15T22:52:09.592Z,18.60
2018-12-15T22:53:03.089Z,18.10
2018-12-15T22:54:03.049Z,17.60
2018-12-15T22:55:03.026Z,17.50
2018-12-15T22:56:03.002Z,17.80
2018-12-15T22:57:02.981Z,17.60
2018-12-15T22:58:02.967Z,17.40
2018-12-15T22:59:02.979Z,18.30
2018-12-15T23:00:02.917Z,18.10
2018-12-15T23:01:02.890Z,17.80
2018-12-15T23:02:02.861Z,18.20
2018-12-15T23:03:02.855Z,18.00
2018-12-15T23:04:02.825Z,17.40
2018-12-15T23:05:02.822Z,17.90
2018-12-15T23:06:02.790Z,18.00
2018-12-15T23:07:02.759Z,18.00
2018-12-15T23:08:02.731Z,17.50
2018-12-15T23:09:02.731Z,17.80
2018-12-15T23:10:02.708Z,18.10
2018-12-15T23:11:02.663Z,18.90
2018-12-15T23:12:02.638Z,18.30
2018-12-15T23:13:02.620Z,18.00
2018-12-15T23:14:02.589Z,18.70
2018-12-15T23:15:02.653Z,18.00
2018-12-15T23:16:02.549Z,18.10
2018-12-15T23:17:02.523Z,18.30
2018-12-15T23:18:02.507Z,17.50
2018-12-15T23:19:02.486Z,18.60
2018-12-15T23:20:02.457Z,18.70
2018-12-15T23:21:02.450Z,18.20
2018-12-15T23:22:02.410Z,18.30
2018-12-15T23:23:02.386Z,18.70
2018-12-15T23:24:02.372Z,18.80
2018-12-15T23:25:02.362Z,18.00
2018-12-15T23:26:02.329Z,18.50
2018-12-15T23:27:02.295Z,18.60
2018-12-15T23:28:02.270Z,18.60
2018-12-15T23:29:02.250Z,18.40
2018-12-15T23:30:02.222Z,18.00
2018-12-15T23:31:02.405Z,18.40
2018-12-15T23:32:02.178Z,18.50
2018-12-15T23:33:02.151Z,18.00
2018-12-15T23:34:02.133Z,18.50
2018-12-15T23:35:02.112Z,18.10
2018-12-15T23:36:02.104Z,18.00
2018-12-15T23:37:02.082Z,18.80
2018-12-15T23:38:02.098Z,18.30
2018-12-15T23:39:02.035Z,18.90
2018-12-15T23:40:01.996Z,18.80
2018-12-15T23:41:02.000Z,18.70
2018-12-15T23:42:01.965Z,19.20
2018-12-15T23:43:01.930Z,18.90
2018-12-15T23:44:01.903Z,18.90
2018-12-15T23:45:01.876Z,19.20
2018-12-15T23:46:01.860Z,19.10
2018-12-15T23:47:01.853Z,19.50
2018-12-15T23:48:01.822Z,19.20
2018-12-15T23:49:01.789Z,19.00
2018-12-15T23:50:01.768Z,19.10
2018-12-15T23:51:01.746Z,18.90
2018-12-15T23:52:01.719Z,19.50
2018-12-15T23:53:01.715Z,19.80
2018-12-15T23:54:01.675Z,20.60
2018-12-15T23:55:01.659Z,19.00
2018-12-15T23:56:01.635Z,20.00
2018-12-15T23:57:01.656Z,19.30
2018-12-15T23:58:01.585Z,19.50
2018-12-15T23:59:01.567Z,19.10
